sensor_id;sensor_type;location;lat;lon;timestamp;temperature;humidity
41256;DHT22;26989;45.524;10.938;2024-02-14T00:00:59;6.30;99.90
41256;DHT22;26989;45.524;10.938;2024-02-14T00:03:26;6.20;99.90
41256;DHT22;26989;45.524;10.938;2024-02-14T00:05:53;6.30;99.90
41256;DHT22;26989;45.524;10.938;2024-02-14T00:08:21;6.10;99.90
41256;DHT22;26989;45.524;10.938;2024-02-14T00:10:48;6.00;99.90
41256;DHT22;26989;45.524;10.938;2024-02-14T00:13:15;6.10;99.90
41256;DHT22;26989;45.524;10.938;2024-02-14T00:15:45;6.10;99.90
41256;DHT22;26989;45.524;10.938;2024-02-14T00:18:13;6.10;99.90
41256;DHT22;26989;45.524;10.938;2024-02-14T00:20:40;6.20;99.90
41256;DHT22;26989;45.524;10.938;2024-02-14T00:23:07;6.20;99.90
41256;DHT22;26989;45.524;10.938;2024-02-14T00:25:34;6.40;99.90
41256;DHT22;26989;45.524;10.938;2024-02-14T00:28:01;6.30;99.90
41256;DHT22;26989;45.524;10.938;2024-02-14T00:30:28;6.40;99.90
41256;DHT22;26989;45.524;10.938;2024-02-14T00:32:56;6.40;99.90
41256;DHT22;26989;45.524;10.938;2024-02-14T00:35:24;6.40;99.90
41256;DHT22;26989;45.524;10.938;2024-02-14T00:37:51;6.40;99.90
41256;DHT22;26989;45.524;10.938;2024-02-14T00:40:19;6.30;99.90
41256;DHT22;26989;45.524;10.938;2024-02-14T00:42:46;6.20;99.90
41256;DHT22;26989;45.524;10.938;2024-02-14T00:45:12;6.10;99.90
41256;DHT22;26989;45.524;10.938;2024-02-14T00:47:40;6.10;99.90
41256;DHT22;26989;45.524;10.938;2024-02-14T00:50:07;6.10;99.90
41256;DHT22;26989;45.524;10.938;2024-02-14T00:52:34;6.00;99.90
41256;DHT22;26989;45.524;10.938;2024-02-14T00:55:01;6.10;99.90
41256;DHT22;26989;45.524;10.938;2024-02-14T00:57:30;6.10;99.90
41256;DHT22;26989;45.524;10.938;2024-02-14T00:59:58;6.10;99.90
41256;DHT22;26989;45.524;10.938;2024-02-14T01:02:27;6.10;99.90
41256;DHT22;26989;45.524;10.938;2024-02-14T01:04:54;6.10;99.90
41256;DHT22;26989;45.524;10.938;2024-02-14T01:07:21;6.10;99.90
41256;DHT22;26989;45.524;10.938;2024-02-14T01:09:48;6.10;99.90
41256;DHT22;26989;45.524;10.938;2024-02-14T01:12:15;6.00;99.90
41256;DHT22;26989;45.524;10.938;2024-02-14T01:14:42;6.20;99.90
41256;DHT22;26989;45.524;10.938;2024-02-14T01:17:09;6.20;99.90
41256;DHT22;26989;45.524;10.938;2024-02-14T01:19:35;6.20;99.90
41256;DHT22;26989;45.524;10.938;2024-02-14T01:22:03;6.20;99.90
41256;DHT22;26989;45.524;10.938;2024-02-14T01:24:30;6.20;99.90
41256;DHT22;26989;45.524;10.938;2024-02-14T01:26:57;6.20;99.90
41256;DHT22;26989;45.524;10.938;2024-02-14T01:29:24;6.20;99.90
41256;DHT22;26989;45.524;10.938;2024-02-14T01:31:51;6.20;99.90
41256;DHT22;26989;45.524;10.938;2024-02-14T01:34:18;6.20;99.90
41256;DHT22;26989;45.524;10.938;2024-02-14T01:36:48;6.20;99.90
41256;DHT22;26989;45.524;10.938;2024-02-14T01:39:15;6.20;99.90
41256;DHT22;26989;45.524;10.938;2024-02-14T01:41:46;6.20;99.90
41256;DHT22;26989;45.524;10.938;2024-02-14T01:44:16;6.30;99.90
41256;DHT22;26989;45.524;10.938;2024-02-14T01:46:44;6.30;99.90
41256;DHT22;26989;45.524;10.938;2024-02-14T01:49:11;6.20;99.90
41256;DHT22;26989;45.524;10.938;2024-02-14T01:51:43;6.20;99.90
41256;DHT22;26989;45.524;10.938;2024-02-14T01:54:12;6.20;99.90
41256;DHT22;26989;45.524;10.938;2024-02-14T01:56:42;6.20;99.90
41256;DHT22;26989;45.524;10.938;2024-02-14T01:59:11;6.30;99.90
41256;DHT22;26989;45.524;10.938;2024-02-14T02:01:38;6.20;99.90
41256;DHT22;26989;45.524;10.938;2024-02-14T02:04:05;6.30;99.90
41256;DHT22;26989;45.524;10.938;2024-02-14T02:06:32;6.20;99.90
41256;DHT22;26989;45.524;10.938;2024-02-14T02:09:00;6.30;99.90
41256;DHT22;26989;45.524;10.938;2024-02-14T02:11:27;6.30;99.90
41256;DHT22;26989;45.524;10.938;2024-02-14T02:13:54;6.30;99.90
41256;DHT22;26989;45.524;10.938;2024-02-14T02:16:22;6.30;99.90
41256;DHT22;26989;45.524;10.938;2024-02-14T02:18:49;6.20;99.90
41256;DHT22;26989;45.524;10.938;2024-02-14T02:21:16;6.30;99.90
41256;DHT22;26989;45.524;10.938;2024-02-14T02:23:47;6.20;99.90
41256;DHT22;26989;45.524;10.938;2024-02-14T02:26:14;6.30;99.90
41256;DHT22;26989;45.524;10.938;2024-02-14T02:28:41;6.20;99.90
41256;DHT22;26989;45.524;10.938;2024-02-14T02:31:09;6.20;99.90
41256;DHT22;26989;45.524;10.938;2024-02-14T02:33:37;6.20;99.90
41256;DHT22;26989;45.524;10.938;2024-02-14T02:36:04;6.20;99.90
41256;DHT22;26989;45.524;10.938;2024-02-14T02:38:33;6.30;99.90
41256;DHT22;26989;45.524;10.938;2024-02-14T02:41:00;6.30;99.90
41256;DHT22;26989;45.524;10.938;2024-02-14T02:43:28;6.40;99.90
41256;DHT22;26989;45.524;10.938;2024-02-14T02:45:56;6.40;99.90
41256;DHT22;26989;45.524;10.938;2024-02-14T02:48:24;6.20;99.90
41256;DHT22;26989;45.524;10.938;2024-02-14T02:50:52;6.20;99.90
41256;DHT22;26989;45.524;10.938;2024-02-14T02:53:19;6.30;99.90
41256;DHT22;26989;45.524;10.938;2024-02-14T02:55:46;6.30;99.90
41256;DHT22;26989;45.524;10.938;2024-02-14T02:58:13;6.30;99.90
41256;DHT22;26989;45.524;10.938;2024-02-14T03:00:41;6.20;99.90
41256;DHT22;26989;45.524;10.938;2024-02-14T03:03:08;6.20;99.90
41256;DHT22;26989;45.524;10.938;2024-02-14T03:05:36;6.20;99.90
41256;DHT22;26989;45.524;10.938;2024-02-14T03:08:03;6.20;99.90
41256;DHT22;26989;45.524;10.938;2024-02-14T03:10:30;6.10;99.90
41256;DHT22;26989;45.524;10.938;2024-02-14T03:12:57;6.00;99.90
41256;DHT22;26989;45.524;10.938;2024-02-14T03:15:24;6.10;99.90
41256;DHT22;26989;45.524;10.938;2024-02-14T03:17:52;6.30;99.90
41256;DHT22;26989;45.524;10.938;2024-02-14T03:20:20;6.20;99.90
41256;DHT22;26989;45.524;10.938;2024-02-14T03:22:47;6.20;99.90
41256;DHT22;26989;45.524;10.938;2024-02-14T03:25:19;6.30;99.90
41256;DHT22;26989;45.524;10.938;2024-02-14T03:27:47;6.30;99.90
41256;DHT22;26989;45.524;10.938;2024-02-14T03:30:16;6.10;99.90
41256;DHT22;26989;45.524;10.938;2024-02-14T03:32:45;6.00;99.90
41256;DHT22;26989;45.524;10.938;2024-02-14T03:35:13;5.90;99.90
41256;DHT22;26989;45.524;10.938;2024-02-14T03:37:41;5.90;99.90
41256;DHT22;26989;45.524;10.938;2024-02-14T03:40:09;6.10;99.90
41256;DHT22;26989;45.524;10.938;2024-02-14T03:42:37;6.40;99.90
41256;DHT22;26989;45.524;10.938;2024-02-14T03:45:07;6.60;99.90
41256;DHT22;26989;45.524;10.938;2024-02-14T03:47:35;6.50;99.90
41256;DHT22;26989;45.524;10.938;2024-02-14T03:50:07;6.40;99.90
41256;DHT22;26989;45.524;10.938;2024-02-14T03:52:34;6.50;99.90
41256;DHT22;26989;45.524;10.938;2024-02-14T03:55:02;6.40;99.90
41256;DHT22;26989;45.524;10.938;2024-02-14T03:57:29;6.30;99.90
41256;DHT22;26989;45.524;10.938;2024-02-14T03:59:59;6.30;99.90
41256;DHT22;26989;45.524;10.938;2024-02-14T04:02:26;6.10;99.90
41256;DHT22;26989;45.524;10.938;2024-02-14T04:04:55;6.30;99.90
41256;DHT22;26989;45.524;10.938;2024-02-14T04:07:22;6.30;99.90
41256;DHT22;26989;45.524;10.938;2024-02-14T04:09:49;6.30;99.90
41256;DHT22;26989;45.524;10.938;2024-02-14T04:12:16;6.20;99.90
41256;DHT22;26989;45.524;10.938;2024-02-14T04:14:43;6.20;99.90
41256;DHT22;26989;45.524;10.938;2024-02-14T04:17:10;6.10;99.90
41256;DHT22;26989;45.524;10.938;2024-02-14T04:19:39;6.30;99.90
41256;DHT22;26989;45.524;10.938;2024-02-14T04:22:12;6.20;99.90
41256;DHT22;26989;45.524;10.938;2024-02-14T04:24:39;6.10;99.90
41256;DHT22;26989;45.524;10.938;2024-02-14T04:27:06;6.00;99.90
41256;DHT22;26989;45.524;10.938;2024-02-14T04:29:33;5.80;99.90
41256;DHT22;26989;45.524;10.938;2024-02-14T04:32:02;5.80;99.90
41256;DHT22;26989;45.524;10.938;2024-02-14T04:34:29;5.80;99.90
41256;DHT22;26989;45.524;10.938;2024-02-14T04:36:57;5.80;99.90
41256;DHT22;26989;45.524;10.938;2024-02-14T04:39:24;5.90;99.90
41256;DHT22;26989;45.524;10.938;2024-02-14T04:41:51;5.90;99.90
41256;DHT22;26989;45.524;10.938;2024-02-14T04:44:28;6.00;99.90
41256;DHT22;26989;45.524;10.938;2024-02-14T04:46:56;5.80;99.90
41256;DHT22;26989;45.524;10.938;2024-02-14T04:49:26;5.70;99.90
41256;DHT22;26989;45.524;10.938;2024-02-14T04:51:55;6.00;99.90
41256;DHT22;26989;45.524;10.938;2024-02-14T04:54:23;6.00;99.90
41256;DHT22;26989;45.524;10.938;2024-02-14T04:56:50;6.00;99.90
41256;DHT22;26989;45.524;10.938;2024-02-14T04:59:22;5.90;99.90
41256;DHT22;26989;45.524;10.938;2024-02-14T05:01:49;5.80;99.90
41256;DHT22;26989;45.524;10.938;2024-02-14T05:04:16;5.80;99.90
41256;DHT22;26989;45.524;10.938;2024-02-14T05:06:44;5.70;99.90
41256;DHT22;26989;45.524;10.938;2024-02-14T05:09:11;5.70;99.90
41256;DHT22;26989;45.524;10.938;2024-02-14T05:11:38;5.60;99.90
41256;DHT22;26989;45.524;10.938;2024-02-14T05:14:05;5.60;99.90
41256;DHT22;26989;45.524;10.938;2024-02-14T05:16:32;5.50;99.90
41256;DHT22;26989;45.524;10.938;2024-02-14T05:18:59;5.40;99.90
41256;DHT22;26989;45.524;10.938;2024-02-14T05:21:27;5.40;99.90
41256;DHT22;26989;45.524;10.938;2024-02-14T05:23:54;5.30;99.90
41256;DHT22;26989;45.524;10.938;2024-02-14T05:26:21;5.30;99.90
41256;DHT22;26989;45.524;10.938;2024-02-14T05:28:48;5.30;99.90
41256;DHT22;26989;45.524;10.938;2024-02-14T05:31:16;5.30;99.90
41256;DHT22;26989;45.524;10.938;2024-02-14T05:33:43;5.20;99.90
41256;DHT22;26989;45.524;10.938;2024-02-14T05:36:10;5.20;99.90
41256;DHT22;26989;45.524;10.938;2024-02-14T05:38:37;5.20;99.90
41256;DHT22;26989;45.524;10.938;2024-02-14T05:41:04;5.20;99.90
41256;DHT22;26989;45.524;10.938;2024-02-14T05:43:31;5.30;99.90
41256;DHT22;26989;45.524;10.938;2024-02-14T05:45:58;5.30;99.90
41256;DHT22;26989;45.524;10.938;2024-02-14T05:48:25;5.30;99.90
41256;DHT22;26989;45.524;10.938;2024-02-14T05:50:52;5.20;99.90
41256;DHT22;26989;45.524;10.938;2024-02-14T05:53:19;5.30;99.90
41256;DHT22;26989;45.524;10.938;2024-02-14T05:55:47;5.20;99.90
41256;DHT22;26989;45.524;10.938;2024-02-14T05:58:13;5.20;99.90
41256;DHT22;26989;45.524;10.938;2024-02-14T06:00:41;5.10;99.90
41256;DHT22;26989;45.524;10.938;2024-02-14T06:03:09;5.10;99.90
41256;DHT22;26989;45.524;10.938;2024-02-14T06:05:36;5.10;99.90
41256;DHT22;26989;45.524;10.938;2024-02-14T06:08:03;5.10;99.90
41256;DHT22;26989;45.524;10.938;2024-02-14T06:10:30;5.10;99.90
41256;DHT22;26989;45.524;10.938;2024-02-14T06:12:57;5.10;99.90
41256;DHT22;26989;45.524;10.938;2024-02-14T06:15:24;5.10;99.90
41256;DHT22;26989;45.524;10.938;2024-02-14T06:17:51;5.10;99.90
41256;DHT22;26989;45.524;10.938;2024-02-14T06:20:18;5.10;99.90
41256;DHT22;26989;45.524;10.938;2024-02-14T06:22:46;5.10;99.90
41256;DHT22;26989;45.524;10.938;2024-02-14T06:25:28;5.10;99.90
41256;DHT22;26989;45.524;10.938;2024-02-14T06:28:10;5.10;99.90
41256;DHT22;26989;45.524;10.938;2024-02-14T06:30:37;5.10;99.90
41256;DHT22;26989;45.524;10.938;2024-02-14T06:33:05;5.10;99.90
41256;DHT22;26989;45.524;10.938;2024-02-14T06:35:32;5.10;99.90
41256;DHT22;26989;45.524;10.938;2024-02-14T06:37:59;5.20;99.90
41256;DHT22;26989;45.524;10.938;2024-02-14T06:40:31;5.20;99.90
41256;DHT22;26989;45.524;10.938;2024-02-14T06:42:58;5.20;99.90
41256;DHT22;26989;45.524;10.938;2024-02-14T06:45:28;5.20;99.90
41256;DHT22;26989;45.524;10.938;2024-02-14T06:47:55;5.20;99.90
41256;DHT22;26989;45.524;10.938;2024-02-14T06:50:22;5.30;99.90
41256;DHT22;26989;45.524;10.938;2024-02-14T06:52:52;5.40;99.90
41256;DHT22;26989;45.524;10.938;2024-02-14T06:55:20;5.50;99.90
41256;DHT22;26989;45.524;10.938;2024-02-14T06:57:47;5.50;99.90
41256;DHT22;26989;45.524;10.938;2024-02-14T07:00:14;5.50;99.90
41256;DHT22;26989;45.524;10.938;2024-02-14T07:02:44;5.50;99.90
41256;DHT22;26989;45.524;10.938;2024-02-14T07:05:24;5.50;99.90
41256;DHT22;26989;45.524;10.938;2024-02-14T07:07:51;5.60;99.90
41256;DHT22;26989;45.524;10.938;2024-02-14T07:10:18;5.80;99.90
41256;DHT22;26989;45.524;10.938;2024-02-14T07:12:45;5.90;99.90
41256;DHT22;26989;45.524;10.938;2024-02-14T07:15:12;6.00;99.90
41256;DHT22;26989;45.524;10.938;2024-02-14T07:17:39;6.10;99.90
41256;DHT22;26989;45.524;10.938;2024-02-14T07:20:07;6.10;99.90
41256;DHT22;26989;45.524;10.938;2024-02-14T07:22:39;6.20;99.90
41256;DHT22;26989;45.524;10.938;2024-02-14T07:25:06;6.30;99.90
41256;DHT22;26989;45.524;10.938;2024-02-14T07:27:34;6.40;99.90
41256;DHT22;26989;45.524;10.938;2024-02-14T07:30:02;6.60;99.90
41256;DHT22;26989;45.524;10.938;2024-02-14T07:32:29;6.80;99.90
41256;DHT22;26989;45.524;10.938;2024-02-14T07:34:56;7.00;99.90
41256;DHT22;26989;45.524;10.938;2024-02-14T07:37:23;7.10;99.90
41256;DHT22;26989;45.524;10.938;2024-02-14T07:39:51;7.20;99.90
41256;DHT22;26989;45.524;10.938;2024-02-14T07:42:18;7.20;99.90
41256;DHT22;26989;45.524;10.938;2024-02-14T07:44:45;7.20;99.90
41256;DHT22;26989;45.524;10.938;2024-02-14T07:47:14;7.30;99.90
41256;DHT22;26989;45.524;10.938;2024-02-14T07:49:41;7.40;99.90
41256;DHT22;26989;45.524;10.938;2024-02-14T07:52:08;7.70;99.90
41256;DHT22;26989;45.524;10.938;2024-02-14T07:54:36;7.80;99.90
41256;DHT22;26989;45.524;10.938;2024-02-14T07:57:03;8.00;99.90
41256;DHT22;26989;45.524;10.938;2024-02-14T07:59:36;8.10;99.90
41256;DHT22;26989;45.524;10.938;2024-02-14T08:02:04;8.30;99.90
41256;DHT22;26989;45.524;10.938;2024-02-14T08:04:38;8.30;99.90
41256;DHT22;26989;45.524;10.938;2024-02-14T08:07:11;8.30;99.90
41256;DHT22;26989;45.524;10.938;2024-02-14T08:09:38;8.40;99.90
41256;DHT22;26989;45.524;10.938;2024-02-14T08:12:07;8.50;99.90
41256;DHT22;26989;45.524;10.938;2024-02-14T08:14:34;8.70;99.90
41256;DHT22;26989;45.524;10.938;2024-02-14T08:17:02;8.80;99.90
41256;DHT22;26989;45.524;10.938;2024-02-14T08:19:28;9.00;99.90
41256;DHT22;26989;45.524;10.938;2024-02-14T08:21:56;9.10;99.90
41256;DHT22;26989;45.524;10.938;2024-02-14T08:24:26;9.10;99.90
41256;DHT22;26989;45.524;10.938;2024-02-14T08:26:53;9.30;99.90
41256;DHT22;26989;45.524;10.938;2024-02-14T08:29:21;9.30;99.90
41256;DHT22;26989;45.524;10.938;2024-02-14T08:31:48;9.50;99.90
41256;DHT22;26989;45.524;10.938;2024-02-14T08:34:15;9.40;99.90
41256;DHT22;26989;45.524;10.938;2024-02-14T08:36:45;9.30;99.90
41256;DHT22;26989;45.524;10.938;2024-02-14T08:39:12;9.40;99.90
41256;DHT22;26989;45.524;10.938;2024-02-14T08:41:39;9.40;99.90
41256;DHT22;26989;45.524;10.938;2024-02-14T08:44:10;9.40;99.90
41256;DHT22;26989;45.524;10.938;2024-02-14T08:46:37;9.40;99.90
41256;DHT22;26989;45.524;10.938;2024-02-14T08:49:05;9.30;99.90
41256;DHT22;26989;45.524;10.938;2024-02-14T08:51:38;9.40;99.90
41256;DHT22;26989;45.524;10.938;2024-02-14T08:54:05;9.40;99.90
41256;DHT22;26989;45.524;10.938;2024-02-14T08:56:33;9.60;99.90
41256;DHT22;26989;45.524;10.938;2024-02-14T08:59:01;9.60;99.90
41256;DHT22;26989;45.524;10.938;2024-02-14T09:01:30;9.70;99.90
41256;DHT22;26989;45.524;10.938;2024-02-14T09:03:57;9.70;99.90
41256;DHT22;26989;45.524;10.938;2024-02-14T09:06:25;9.80;99.90
41256;DHT22;26989;45.524;10.938;2024-02-14T09:08:56;9.90;99.90
41256;DHT22;26989;45.524;10.938;2024-02-14T09:11:24;9.80;99.90
41256;DHT22;26989;45.524;10.938;2024-02-14T09:13:52;9.80;99.90
41256;DHT22;26989;45.524;10.938;2024-02-14T09:16:22;9.90;99.90
41256;DHT22;26989;45.524;10.938;2024-02-14T09:18:50;9.90;99.90
41256;DHT22;26989;45.524;10.938;2024-02-14T09:21:17;9.90;99.90
41256;DHT22;26989;45.524;10.938;2024-02-14T09:23:47;10.20;99.90
41256;DHT22;26989;45.524;10.938;2024-02-14T09:26:14;10.10;99.90
41256;DHT22;26989;45.524;10.938;2024-02-14T09:28:43;10.10;99.90
41256;DHT22;26989;45.524;10.938;2024-02-14T09:31:10;10.10;99.90
41256;DHT22;26989;45.524;10.938;2024-02-14T09:33:42;10.10;99.90
41256;DHT22;26989;45.524;10.938;2024-02-14T09:36:15;10.10;99.90
41256;DHT22;26989;45.524;10.938;2024-02-14T09:38:44;10.20;99.90
41256;DHT22;26989;45.524;10.938;2024-02-14T09:41:27;10.20;99.90
41256;DHT22;26989;45.524;10.938;2024-02-14T09:43:55;10.30;99.90
41256;DHT22;26989;45.524;10.938;2024-02-14T09:46:24;10.40;99.90
41256;DHT22;26989;45.524;10.938;2024-02-14T09:48:53;10.40;99.90
41256;DHT22;26989;45.524;10.938;2024-02-14T09:51:21;10.50;99.90
41256;DHT22;26989;45.524;10.938;2024-02-14T09:53:48;10.60;99.90
41256;DHT22;26989;45.524;10.938;2024-02-14T09:56:17;10.70;99.90
41256;DHT22;26989;45.524;10.938;2024-02-14T09:58:49;10.90;99.90
41256;DHT22;26989;45.524;10.938;2024-02-14T10:01:24;10.90;99.90
41256;DHT22;26989;45.524;10.938;2024-02-14T10:03:52;11.00;99.90
41256;DHT22;26989;45.524;10.938;2024-02-14T10:06:19;11.10;99.90
41256;DHT22;26989;45.524;10.938;2024-02-14T10:08:47;11.20;99.90
41256;DHT22;26989;45.524;10.938;2024-02-14T10:11:30;11.30;99.90
41256;DHT22;26989;45.524;10.938;2024-02-14T10:13:59;11.30;99.90
41256;DHT22;26989;45.524;10.938;2024-02-14T10:16:48;11.30;99.90
41256;DHT22;26989;45.524;10.938;2024-02-14T10:19:16;11.40;99.90
41256;DHT22;26989;45.524;10.938;2024-02-14T10:21:58;11.50;99.90
41256;DHT22;26989;45.524;10.938;2024-02-14T10:24:27;11.50;99.90
41256;DHT22;26989;45.524;10.938;2024-02-14T10:27:00;11.60;99.90
41256;DHT22;26989;45.524;10.938;2024-02-14T10:29:27;11.70;99.90
41256;DHT22;26989;45.524;10.938;2024-02-14T10:31:54;11.80;99.90
41256;DHT22;26989;45.524;10.938;2024-02-14T10:34:25;11.90;99.90
41256;DHT22;26989;45.524;10.938;2024-02-14T10:36:56;11.90;99.90
41256;DHT22;26989;45.524;10.938;2024-02-14T10:39:26;11.90;99.90
41256;DHT22;26989;45.524;10.938;2024-02-14T10:41:53;11.90;99.90
41256;DHT22;26989;45.524;10.938;2024-02-14T10:44:20;12.00;99.90
41256;DHT22;26989;45.524;10.938;2024-02-14T10:46:48;12.10;99.90
41256;DHT22;26989;45.524;10.938;2024-02-14T10:49:21;12.20;99.90
41256;DHT22;26989;45.524;10.938;2024-02-14T10:51:50;12.20;99.90
41256;DHT22;26989;45.524;10.938;2024-02-14T10:54:20;12.30;99.90
41256;DHT22;26989;45.524;10.938;2024-02-14T10:56:53;12.30;99.90
41256;DHT22;26989;45.524;10.938;2024-02-14T10:59:25;12.30;99.90
41256;DHT22;26989;45.524;10.938;2024-02-14T11:01:53;12.40;99.90
41256;DHT22;26989;45.524;10.938;2024-02-14T11:04:21;12.40;99.90
41256;DHT22;26989;45.524;10.938;2024-02-14T11:06:54;12.50;99.90
41256;DHT22;26989;45.524;10.938;2024-02-14T11:09:37;12.50;99.90
41256;DHT22;26989;45.524;10.938;2024-02-14T11:12:10;12.60;99.90
41256;DHT22;26989;45.524;10.938;2024-02-14T11:14:37;12.60;99.90
41256;DHT22;26989;45.524;10.938;2024-02-14T11:17:10;12.70;99.90
41256;DHT22;26989;45.524;10.938;2024-02-14T11:19:38;12.70;99.90
41256;DHT22;26989;45.524;10.938;2024-02-14T11:22:12;12.70;99.90
41256;DHT22;26989;45.524;10.938;2024-02-14T11:24:40;12.80;99.90
41256;DHT22;26989;45.524;10.938;2024-02-14T11:27:11;12.90;99.90
41256;DHT22;26989;45.524;10.938;2024-02-14T11:29:59;12.90;99.90
41256;DHT22;26989;45.524;10.938;2024-02-14T11:32:27;13.10;99.90
41256;DHT22;26989;45.524;10.938;2024-02-14T11:34:55;13.10;99.90
41256;DHT22;26989;45.524;10.938;2024-02-14T11:37:30;13.00;99.90
41256;DHT22;26989;45.524;10.938;2024-02-14T11:39:58;13.10;99.90
41256;DHT22;26989;45.524;10.938;2024-02-14T11:42:25;13.10;99.90
41256;DHT22;26989;45.524;10.938;2024-02-14T11:44:53;13.20;99.90
41256;DHT22;26989;45.524;10.938;2024-02-14T11:47:23;13.20;99.90
41256;DHT22;26989;45.524;10.938;2024-02-14T11:49:50;13.30;99.90
41256;DHT22;26989;45.524;10.938;2024-02-14T11:52:17;13.40;99.90
41256;DHT22;26989;45.524;10.938;2024-02-14T11:54:48;13.40;99.90
41256;DHT22;26989;45.524;10.938;2024-02-14T11:57:19;13.40;99.90
41256;DHT22;26989;45.524;10.938;2024-02-14T11:59:49;13.60;99.90
41256;DHT22;26989;45.524;10.938;2024-02-14T12:02:20;13.60;99.90
41256;DHT22;26989;45.524;10.938;2024-02-14T12:04:48;13.50;99.90
41256;DHT22;26989;45.524;10.938;2024-02-14T12:07:17;13.40;99.90
41256;DHT22;26989;45.524;10.938;2024-02-14T12:09:45;13.60;99.90
41256;DHT22;26989;45.524;10.938;2024-02-14T12:12:12;13.70;99.90
41256;DHT22;26989;45.524;10.938;2024-02-14T12:14:44;13.70;99.90
41256;DHT22;26989;45.524;10.938;2024-02-14T12:17:17;13.80;99.90
41256;DHT22;26989;45.524;10.938;2024-02-14T12:19:45;13.70;99.90
41256;DHT22;26989;45.524;10.938;2024-02-14T12:22:16;13.70;99.90
41256;DHT22;26989;45.524;10.938;2024-02-14T12:24:46;13.80;99.90
41256;DHT22;26989;45.524;10.938;2024-02-14T12:27:18;13.80;99.90
41256;DHT22;26989;45.524;10.938;2024-02-14T12:29:47;13.80;99.90
41256;DHT22;26989;45.524;10.938;2024-02-14T12:32:16;13.80;99.90
41256;DHT22;26989;45.524;10.938;2024-02-14T12:34:45;13.90;99.90
41256;DHT22;26989;45.524;10.938;2024-02-14T12:37:16;13.90;99.90
41256;DHT22;26989;45.524;10.938;2024-02-14T12:39:44;13.80;99.90
41256;DHT22;26989;45.524;10.938;2024-02-14T12:42:11;14.00;99.90
41256;DHT22;26989;45.524;10.938;2024-02-14T12:44:38;14.00;99.90
41256;DHT22;26989;45.524;10.938;2024-02-14T12:47:07;13.70;99.90
41256;DHT22;26989;45.524;10.938;2024-02-14T12:49:36;13.80;99.90
41256;DHT22;26989;45.524;10.938;2024-02-14T12:52:04;13.90;99.90
41256;DHT22;26989;45.524;10.938;2024-02-14T12:54:34;14.00;99.90
41256;DHT22;26989;45.524;10.938;2024-02-14T12:57:01;14.00;99.90
41256;DHT22;26989;45.524;10.938;2024-02-14T12:59:28;14.20;99.90
41256;DHT22;26989;45.524;10.938;2024-02-14T13:01:55;14.20;99.90
41256;DHT22;26989;45.524;10.938;2024-02-14T13:04:22;14.10;99.90
41256;DHT22;26989;45.524;10.938;2024-02-14T13:06:50;14.30;99.90
41256;DHT22;26989;45.524;10.938;2024-02-14T13:09:17;14.40;99.90
41256;DHT22;26989;45.524;10.938;2024-02-14T13:11:44;14.00;99.90
41256;DHT22;26989;45.524;10.938;2024-02-14T13:14:12;14.20;99.90
41256;DHT22;26989;45.524;10.938;2024-02-14T13:16:39;14.30;99.90
41256;DHT22;26989;45.524;10.938;2024-02-14T13:19:06;14.30;99.90
41256;DHT22;26989;45.524;10.938;2024-02-14T13:21:34;14.30;99.90
41256;DHT22;26989;45.524;10.938;2024-02-14T13:24:01;14.20;99.90
41256;DHT22;26989;45.524;10.938;2024-02-14T13:26:28;14.30;99.90
41256;DHT22;26989;45.524;10.938;2024-02-14T13:28:56;14.20;99.90
41256;DHT22;26989;45.524;10.938;2024-02-14T13:31:23;14.20;99.90
41256;DHT22;26989;45.524;10.938;2024-02-14T13:33:50;14.10;99.90
41256;DHT22;26989;45.524;10.938;2024-02-14T13:36:18;14.00;99.90
41256;DHT22;26989;45.524;10.938;2024-02-14T13:38:45;14.10;99.90
41256;DHT22;26989;45.524;10.938;2024-02-14T13:41:12;14.00;99.90
41256;DHT22;26989;45.524;10.938;2024-02-14T13:43:40;14.00;99.90
41256;DHT22;26989;45.524;10.938;2024-02-14T13:46:08;13.90;99.90
41256;DHT22;26989;45.524;10.938;2024-02-14T13:48:36;13.90;99.90
41256;DHT22;26989;45.524;10.938;2024-02-14T13:51:03;13.90;99.90
41256;DHT22;26989;45.524;10.938;2024-02-14T13:53:30;13.90;99.90
41256;DHT22;26989;45.524;10.938;2024-02-14T13:55:57;13.90;99.90
41256;DHT22;26989;45.524;10.938;2024-02-14T13:58:24;13.80;99.90
41256;DHT22;26989;45.524;10.938;2024-02-14T14:00:51;13.80;99.90
41256;DHT22;26989;45.524;10.938;2024-02-14T14:03:19;13.80;99.90
41256;DHT22;26989;45.524;10.938;2024-02-14T14:05:46;13.80;99.90
41256;DHT22;26989;45.524;10.938;2024-02-14T14:08:13;13.70;99.90
41256;DHT22;26989;45.524;10.938;2024-02-14T14:10:40;13.70;99.90
41256;DHT22;26989;45.524;10.938;2024-02-14T14:13:09;13.70;99.90
41256;DHT22;26989;45.524;10.938;2024-02-14T14:15:36;13.80;99.90
41256;DHT22;26989;45.524;10.938;2024-02-14T14:18:04;13.70;99.90
41256;DHT22;26989;45.524;10.938;2024-02-14T14:20:33;13.80;99.90
41256;DHT22;26989;45.524;10.938;2024-02-14T14:23:00;13.70;99.90
41256;DHT22;26989;45.524;10.938;2024-02-14T14:25:30;13.60;99.90
41256;DHT22;26989;45.524;10.938;2024-02-14T14:28:00;13.50;99.90
41256;DHT22;26989;45.524;10.938;2024-02-14T14:30:30;13.50;99.90
41256;DHT22;26989;45.524;10.938;2024-02-14T14:32:58;13.50;99.90
41256;DHT22;26989;45.524;10.938;2024-02-14T14:35:25;13.50;99.90
41256;DHT22;26989;45.524;10.938;2024-02-14T14:37:52;13.40;99.90
41256;DHT22;26989;45.524;10.938;2024-02-14T14:40:19;13.40;99.90
41256;DHT22;26989;45.524;10.938;2024-02-14T14:42:46;13.40;99.90
41256;DHT22;26989;45.524;10.938;2024-02-14T14:45:13;13.40;99.90
41256;DHT22;26989;45.524;10.938;2024-02-14T14:47:40;13.30;99.90
41256;DHT22;26989;45.524;10.938;2024-02-14T14:50:09;13.30;99.90
41256;DHT22;26989;45.524;10.938;2024-02-14T14:52:37;13.30;99.90
41256;DHT22;26989;45.524;10.938;2024-02-14T14:55:06;13.30;99.90
41256;DHT22;26989;45.524;10.938;2024-02-14T14:57:41;13.40;99.90
41256;DHT22;26989;45.524;10.938;2024-02-14T15:00:17;13.40;99.90
41256;DHT22;26989;45.524;10.938;2024-02-14T15:02:49;13.40;99.90
41256;DHT22;26989;45.524;10.938;2024-02-14T15:05:20;13.30;99.90
41256;DHT22;26989;45.524;10.938;2024-02-14T15:07:58;13.30;99.90
41256;DHT22;26989;45.524;10.938;2024-02-14T15:10:28;13.30;99.90
41256;DHT22;26989;45.524;10.938;2024-02-14T15:13:02;13.30;99.90
41256;DHT22;26989;45.524;10.938;2024-02-14T15:15:32;13.20;99.90
41256;DHT22;26989;45.524;10.938;2024-02-14T15:18:00;13.20;99.90
41256;DHT22;26989;45.524;10.938;2024-02-14T15:20:29;13.20;99.90
41256;DHT22;26989;45.524;10.938;2024-02-14T15:23:00;13.20;99.90
41256;DHT22;26989;45.524;10.938;2024-02-14T15:25:27;13.20;99.90
41256;DHT22;26989;45.524;10.938;2024-02-14T15:27:54;13.10;99.90
41256;DHT22;26989;45.524;10.938;2024-02-14T15:30:25;13.10;99.90
41256;DHT22;26989;45.524;10.938;2024-02-14T15:33:11;13.00;99.90